Time;durP1;ratioP1;P1;durP2;ratioP2;P2;SDS_P1;SDS_P2;PMS_P1;PMS_P2;Temp;Humidity;BMP_temperature;BMP_pressure;BME280_temperature;BME280_humidity;BME280_pressure;Samples;Min_cycle;Max_cycle;Signal;HPM_P1;HPM_P2
2021/12/28 00:00:22;;;;;;;25.85;16.75;;;8.40;73.20;;;;;;5013296;28;20040;-25
2021/12/28 00:02:49;;;;;;;19.88;13.90;;;8.40;73.30;;;;;;5013558;28;20037;-25
2021/12/28 00:05:16;;;;;;;17.67;12.63;;;8.40;73.30;;;;;;5013307;28;20069;-28
2021/12/28 00:07:43;;;;;;;13.68;8.88;;;8.40;73.30;;;;;;5012982;28;20386;-26
2021/12/28 00:10:13;;;;;;;12.75;8.40;;;8.40;73.20;;;;;;5011829;28;20076;-26
2021/12/28 00:12:40;;;;;;;31.33;20.02;;;8.40;73.20;;;;;;5013220;28;20393;-26
2021/12/28 00:18:02;;;;;;;20.73;14.70;;;8.30;73.30;;;;;;5013022;28;20026;-25
2021/12/28 00:20:40;;;;;;;30.67;21.98;;;8.30;73.30;;;;;;5012742;28;20061;-26
2021/12/28 00:23:16;;;;;;;24.40;17.02;;;8.30;73.30;;;;;;5013345;28;20053;-26
2021/12/28 00:25:43;;;;;;;16.15;11.30;;;8.30;73.30;;;;;;5015118;28;20032;-26
2021/12/28 00:28:10;;;;;;;15.27;10.88;;;8.30;73.30;;;;;;5016626;28;20378;-25
2021/12/28 00:30:37;;;;;;;15.80;11.40;;;8.20;73.30;;;;;;5016195;28;20034;-26
2021/12/28 00:33:04;;;;;;;14.13;8.75;;;8.20;73.30;;;;;;5016998;28;20109;-25
2021/12/28 00:35:34;;;;;;;14.20;10.18;;;8.20;73.30;;;;;;5016543;28;20034;-25
2021/12/28 00:38:02;;;;;;;12.98;7.85;;;8.20;73.20;;;;;;5016639;28;20061;-25
2021/12/28 00:40:28;;;;;;;34.85;26.00;;;8.20;73.20;;;;;;5016050;28;20064;-25
2021/12/28 00:42:54;;;;;;;14.90;10.07;;;8.20;73.30;;;;;;5016352;28;20034;-26
2021/12/28 00:45:21;;;;;;;15.20;10.25;;;8.10;73.40;;;;;;5016123;28;20041;-25
2021/12/28 00:47:47;;;;;;;14.00;8.95;;;8.10;73.30;;;;;;5016191;28;20045;-26
2021/12/28 00:50:16;;;;;;;13.48;9.77;;;8.00;73.30;;;;;;5016011;28;20030;-26
2021/12/28 00:52:43;;;;;;;15.30;10.77;;;8.00;73.30;;;;;;5016310;28;20032;-25
2021/12/28 00:55:12;;;;;;;29.05;20.63;;;7.90;73.50;;;;;;5016223;28;20057;-25
2021/12/28 00:57:38;;;;;;;27.00;17.92;;;7.90;73.50;;;;;;5015860;28;20512;-26
2021/12/28 01:00:08;;;;;;;25.15;17.58;;;7.90;73.70;;;;;;5014810;28;20072;-25
2021/12/28 01:02:35;;;;;;;27.92;20.13;;;7.90;73.70;;;;;;5015650;28;20390;-25
2021/12/28 01:05:02;;;;;;;21.77;16.13;;;7.80;73.90;;;;;;5016072;28;20022;-25
2021/12/28 01:07:28;;;;;;;14.70;10.57;;;7.80;73.90;;;;;;5016064;28;20025;-25
2021/12/28 01:09:54;;;;;;;17.10;11.30;;;7.70;73.90;;;;;;5016002;28;20026;-26
2021/12/28 01:12:20;;;;;;;22.50;14.70;;;7.70;73.90;;;;;;5015637;28;20524;-25
2021/12/28 01:14:46;;;;;;;13.88;8.32;;;7.70;74.00;;;;;;5015547;28;20045;-25
2021/12/28 01:17:12;;;;;;;13.43;8.15;;;7.60;73.90;;;;;;5015820;28;20030;-25
2021/12/28 01:19:38;;;;;;;21.60;15.00;;;7.70;73.90;;;;;;5015503;28;20521;-26
2021/12/28 01:22:05;;;;;;;24.58;17.45;;;7.70;74.00;;;;;;5015385;28;20505;-26
2021/12/28 01:24:32;;;;;;;29.52;20.83;;;7.60;74.00;;;;;;5015294;28;20429;-27
2021/12/28 01:26:59;;;;;;;19.27;13.25;;;7.60;74.30;;;;;;5015367;28;20498;-26
2021/12/28 01:29:26;;;;;;;14.68;9.63;;;7.60;74.20;;;;;;5015641;28;20030;-25
2021/12/28 01:31:52;;;;;;;15.82;10.25;;;7.60;74.20;;;;;;5015620;28;20053;-26
2021/12/28 01:34:19;;;;;;;15.13;8.68;;;7.60;74.20;;;;;;5015276;28;20104;-25
2021/12/28 01:36:45;;;;;;;19.73;11.90;;;7.70;74.10;;;;;;5014293;28;20679;-26
2021/12/28 01:39:12;;;;;;;26.58;15.85;;;7.70;74.20;;;;;;5015117;28;20037;-27
2021/12/28 01:41:38;;;;;;;32.55;22.05;;;7.70;74.20;;;;;;5015689;28;20528;-26
2021/12/28 01:44:09;;;;;;;37.28;22.73;;;7.70;74.30;;;;;;5015202;28;20081;-25
2021/12/28 01:46:36;;;;;;;35.05;22.33;;;7.70;74.50;;;;;;5015343;28;20029;-26
2021/12/28 01:49:05;;;;;;;23.95;16.90;;;7.70;74.30;;;;;;5015120;28;20042;-25
2021/12/28 01:51:32;;;;;;;31.98;20.58;;;7.70;74.20;;;;;;5015246;28;20033;-25
2021/12/28 01:54:00;;;;;;;22.92;14.35;;;7.70;74.40;;;;;;5014894;28;20029;-26
2021/12/28 01:56:32;;;;;;;18.30;12.10;;;7.70;74.50;;;;;;5014850;28;20033;-25
2021/12/28 01:58:58;;;;;;;36.15;22.73;;;7.70;74.40;;;;;;5015093;28;20076;-26
2021/12/28 02:01:26;;;;;;;25.08;15.48;;;7.80;74.50;;;;;;5014944;28;20029;-25
2021/12/28 02:03:52;;;;;;;21.20;14.45;;;7.80;74.50;;;;;;5014952;28;20030;-25
2021/12/28 02:06:19;;;;;;;16.88;11.68;;;7.80;74.40;;;;;;5013289;28;20052;-26
2021/12/28 02:08:46;;;;;;;32.38;24.17;;;7.80;74.50;;;;;;5014611;28;20510;-25
2021/12/28 02:11:13;;;;;;;25.88;17.45;;;7.80;74.70;;;;;;5014795;28;20030;-26
2021/12/28 02:13:41;;;;;;;31.40;21.30;;;7.90;74.60;;;;;;5014741;28;20068;-25
2021/12/28 02:16:07;;;;;;;26.60;18.23;;;7.90;74.60;;;;;;5014754;28;20042;-25
2021/12/28 02:18:35;;;;;;;18.98;12.85;;;7.90;74.60;;;;;;5014213;28;20030;-25
2021/12/28 02:21:04;;;;;;;30.30;19.58;;;7.90;74.40;;;;;;5013797;28;20036;-27
2021/12/28 02:23:31;;;;;;;30.13;20.48;;;7.90;74.40;;;;;;5014674;28;20038;-25
2021/12/28 02:25:57;;;;;;;34.13;24.27;;;7.90;74.60;;;;;;5014508;28;20486;-25
2021/12/28 02:28:23;;;;;;;33.10;20.30;;;7.90;74.90;;;;;;5014389;28;20026;-25
2021/12/28 02:30:53;;;;;;;33.45;23.02;;;7.90;74.80;;;;;;5014465;28;20036;-25
2021/12/28 02:33:26;;;;;;;27.50;18.90;;;7.90;75.00;;;;;;5014484;28;20080;-25
2021/12/28 02:35:56;;;;;;;30.27;21.63;;;7.90;74.90;;;;;;5014291;28;20029;-27
2021/12/28 02:38:22;;;;;;;33.03;22.75;;;8.00;74.90;;;;;;5013859;28;20478;-26
2021/12/28 02:40:49;;;;;;;27.75;20.15;;;8.00;75.30;;;;;;5014260;28;20456;-25
2021/12/28 02:43:18;;;;;;;27.10;19.83;;;8.00;75.50;;;;;;5014231;28;20037;-25
2021/12/28 02:45:51;;;;;;;26.52;17.60;;;8.00;75.90;;;;;;5013951;28;20018;-25
2021/12/28 02:48:17;;;;;;;20.40;14.65;;;8.00;75.40;;;;;;5013399;28;20038;-25
2021/12/28 02:50:48;;;;;;;27.15;18.40;;;8.00;75.90;;;;;;5014458;28;20380;-25
2021/12/28 02:53:15;;;;;;;23.77;15.23;;;8.00;75.30;;;;;;5013899;28;20486;-25
2021/12/28 02:55:42;;;;;;;28.10;18.33;;;8.00;75.50;;;;;;5013997;28;20030;-27
2021/12/28 02:58:12;;;;;;;22.08;15.13;;;8.00;75.50;;;;;;5013786;28;20148;-25
2021/12/28 03:00:52;;;;;;;22.05;14.98;;;7.90;75.30;;;;;;5013601;28;20033;-25
2021/12/28 03:03:22;;;;;;;14.35;9.40;;;8.00;75.40;;;;;;5014622;28;20057;-27
2021/12/28 03:05:51;;;;;;;20.02;14.00;;;8.00;75.40;;;;;;5013976;28;20030;-27
2021/12/28 03:08:19;;;;;;;19.83;12.45;;;8.00;75.60;;;;;;5013427;28;20506;-26
2021/12/28 03:10:47;;;;;;;14.75;9.88;;;8.00;75.60;;;;;;5014121;28;20030;-25
2021/12/28 03:13:17;;;;;;;20.48;13.52;;;8.10;75.30;;;;;;5013492;28;20505;-25
2021/12/28 03:15:43;;;;;;;22.85;16.00;;;8.10;75.30;;;;;;5013382;28;20034;-25
2021/12/28 03:18:09;;;;;;;23.13;14.75;;;8.10;75.50;;;;;;5013893;28;20056;-27
2021/12/28 03:20:36;;;;;;;13.77;9.23;;;8.10;75.60;;;;;;5013798;28;20030;-26
2021/12/28 03:23:03;;;;;;;10.82;7.00;;;8.10;75.40;;;;;;5014032;28;20064;-25
2021/12/28 03:25:30;;;;;;;10.48;6.53;;;8.00;75.10;;;;;;5013842;28;20127;-25
2021/12/28 03:27:56;;;;;;;11.02;7.13;;;8.10;75.10;;;;;;5013292;28;20029;-25
2021/12/28 03:30:23;;;;;;;9.98;6.55;;;8.00;75.10;;;;;;5013128;28;20030;-25
2021/12/28 03:32:51;;;;;;;9.88;6.05;;;8.00;75.00;;;;;;5012224;28;20026;-25
2021/12/28 03:35:17;;;;;;;8.70;5.85;;;8.00;75.00;;;;;;5013543;28;20038;-25
2021/12/28 03:37:44;;;;;;;12.70;8.23;;;8.00;75.00;;;;;;5013662;28;20433;-25
2021/12/28 03:40:13;;;;;;;9.73;6.35;;;8.10;75.10;;;;;;5013288;28;20064;-26
2021/12/28 03:42:40;;;;;;;10.85;6.60;;;8.10;75.00;;;;;;5013437;28;20132;-27
2021/12/28 03:45:08;;;;;;;14.65;10.10;;;8.10;74.90;;;;;;5013479;28;20014;-26
2021/12/28 03:47:35;;;;;;;9.20;5.95;;;8.10;74.90;;;;;;5013434;28;20518;-26
2021/12/28 03:50:02;;;;;;;7.45;5.03;;;8.10;74.80;;;;;;5013395;28;20370;-26
2021/12/28 03:52:28;;;;;;;9.30;5.85;;;8.10;74.80;;;;;;5013563;28;20026;-25
2021/12/28 03:54:56;;;;;;;8.02;4.65;;;8.10;74.80;;;;;;5013450;28;20037;-25
2021/12/28 03:57:22;;;;;;;7.15;4.72;;;8.10;74.70;;;;;;5012981;28;20029;-25
2021/12/28 03:59:47;;;;;;;14.73;9.48;;;8.10;74.70;;;;;;5013926;28;20030;-24
2021/12/28 04:02:13;;;;;;;8.50;5.20;;;8.10;75.00;;;;;;5017042;28;20026;-25
2021/12/28 04:04:39;;;;;;;8.43;4.72;;;8.10;74.80;;;;;;5017473;28;20022;-24
2021/12/28 04:07:08;;;;;;;7.80;4.80;;;8.10;74.80;;;;;;5018135;28;20113;-25
2021/12/28 04:10:28;;;;;;;6.53;4.10;;;8.10;74.70;;;;;;5017143;28;20040;-26
2021/12/28 04:12:22;;;;;;;10.02;5.88;;;8.10;74.60;;;;;;5019370;28;20084;-25
2021/12/28 04:14:49;;;;;;;11.85;7.45;;;8.10;74.70;;;;;;5016988;28;20034;-25
2021/12/28 04:17:15;;;;;;;11.85;7.40;;;8.20;74.70;;;;;;5017244;28;20018;-25
2021/12/28 04:19:41;;;;;;;8.95;5.53;;;8.10;74.80;;;;;;5016875;28;20389;-26
2021/12/28 04:22:08;;;;;;;7.25;4.90;;;8.10;74.80;;;;;;5016900;28;20018;-26
2021/12/28 04:24:34;;;;;;;7.10;4.70;;;8.10;74.70;;;;;;5016676;28;20056;-26
2021/12/28 04:27:01;;;;;;;8.00;4.90;;;8.10;74.70;;;;;;5017263;28;20065;-25
2021/12/28 04:29:26;;;;;;;8.98;4.65;;;8.10;74.70;;;;;;5016609;28;20076;-25
2021/12/28 04:31:52;;;;;;;17.98;11.82;;;8.10;74.70;;;;;;4999129;28;20026;-25
2021/12/28 04:34:18;;;;;;;13.48;8.65;;;8.10;74.80;;;;;;5014867;28;20030;-26
2021/12/28 04:36:44;;;;;;;15.90;10.93;;;8.10;74.90;;;;;;5015105;28;20433;-26
2021/12/28 04:39:10;;;;;;;21.52;13.52;;;8.10;74.90;;;;;;5016612;28;20570;-26
2021/12/28 04:41:37;;;;;;;13.48;8.30;;;8.10;75.00;;;;;;5015074;28;20558;-25
2021/12/28 04:44:04;;;;;;;8.65;5.63;;;8.10;75.10;;;;;;5016440;28;20030;-25
2021/12/28 04:46:31;;;;;;;10.10;6.03;;;8.10;74.90;;;;;;5016249;28;20058;-25
2021/12/28 04:48:57;;;;;;;9.40;5.45;;;8.10;74.90;;;;;;5016058;28;20050;-25
2021/12/28 04:51:23;;;;;;;11.25;7.70;;;8.10;74.90;;;;;;5016361;28;20049;-26
2021/12/28 04:53:53;;;;;;;14.57;9.18;;;8.10;75.10;;;;;;5016061;28;20030;-26
2021/12/28 04:56:19;;;;;;;10.07;6.47;;;8.10;75.10;;;;;;5015689;28;20034;-25
2021/12/28 04:58:45;;;;;;;7.82;5.28;;;8.10;75.20;;;;;;5016073;28;20041;-25
2021/12/28 05:01:11;;;;;;;9.38;5.40;;;8.10;75.00;;;;;;5016256;28;20394;-24
2021/12/28 05:03:37;;;;;;;8.38;5.00;;;8.10;74.90;;;;;;5016149;28;20033;-25
2021/12/28 05:06:03;;;;;;;7.90;4.78;;;8.20;74.80;;;;;;5015936;28;20036;-26
2021/12/28 05:08:30;;;;;;;7.05;4.47;;;8.10;74.80;;;;;;5015610;28;20510;-26
2021/12/28 05:10:56;;;;;;;6.60;4.30;;;8.20;74.80;;;;;;5015639;28;20061;-25
2021/12/28 05:13:23;;;;;;;7.35;4.45;;;8.20;74.70;;;;;;5015893;28;20104;-26
2021/12/28 05:15:50;;;;;;;12.93;9.18;;;8.10;74.70;;;;;;5015872;28;20046;-25
2021/12/28 05:18:16;;;;;;;8.77;5.10;;;8.20;74.80;;;;;;5015384;28;20560;-25
2021/12/28 05:20:43;;;;;;;8.75;4.70;;;8.20;74.80;;;;;;5015817;28;20022;-25
2021/12/28 05:23:10;;;;;;;7.90;5.10;;;8.20;74.80;;;;;;5015895;28;20073;-26
2021/12/28 05:25:37;;;;;;;7.82;5.10;;;8.20;74.80;;;;;;5015693;28;20026;-26
2021/12/28 05:28:04;;;;;;;8.52;4.75;;;8.20;74.80;;;;;;5015409;28;20052;-26
2021/12/28 05:30:30;;;;;;;7.40;4.80;;;8.20;74.70;;;;;;5013948;28;20123;-25
2021/12/28 05:32:56;;;;;;;6.57;4.28;;;8.30;74.80;;;;;;5015292;28;20375;-25
2021/12/28 05:35:22;;;;;;;7.75;4.43;;;8.30;74.70;;;;;;5013991;28;20068;-24
2021/12/28 05:37:49;;;;;;;7.72;4.82;;;8.30;74.70;;;;;;5015238;28;20445;-25
2021/12/28 05:40:16;;;;;;;8.45;5.28;;;8.20;74.60;;;;;;5015032;28;20022;-25
2021/12/28 05:42:42;;;;;;;8.02;5.07;;;8.30;74.60;;;;;;5015071;28;20084;-25
2021/12/28 05:45:09;;;;;;;8.73;5.53;;;8.30;74.70;;;;;;5015485;28;20018;-25
2021/12/28 05:47:35;;;;;;;9.70;5.80;;;8.30;74.70;;;;;;5015000;28;20046;-26
2021/12/28 05:50:03;;;;;;;8.05;5.25;;;8.30;74.70;;;;;;5015264;28;20022;-26
2021/12/28 05:52:29;;;;;;;15.00;11.05;;;8.30;74.60;;;;;;5014797;28;20071;-26
2021/12/28 05:54:55;;;;;;;12.68;8.13;;;8.30;74.50;;;;;;5015099;28;20038;-25
2021/12/28 05:57:21;;;;;;;11.80;7.00;;;8.30;74.60;;;;;;5015103;28;20504;-26
2021/12/28 05:59:47;;;;;;;10.50;6.40;;;8.20;74.60;;;;;;5015123;28;20037;-26
2021/12/28 06:02:13;;;;;;;9.93;5.63;;;8.20;74.50;;;;;;5014677;28;20095;-26
2021/12/28 06:04:39;;;;;;;8.27;4.78;;;8.20;74.50;;;;;;5014782;28;20045;-25
2021/12/28 06:07:04;;;;;;;12.25;7.38;;;8.10;74.60;;;;;;5015090;28;20386;-25
2021/12/28 06:09:30;;;;;;;7.55;4.63;;;8.10;74.60;;;;;;5014605;28;20113;-25
2021/12/28 06:11:56;;;;;;;9.10;6.15;;;8.10;74.60;;;;;;5015212;28;20505;-24
2021/12/28 06:14:22;;;;;;;8.45;5.47;;;8.10;74.70;;;;;;5014479;28;20026;-24
2021/12/28 06:16:48;;;;;;;10.45;6.70;;;8.00;74.70;;;;;;5014706;28;20037;-23
2021/12/28 06:19:14;;;;;;;10.73;5.97;;;8.00;74.80;;;;;;5015045;28;20022;-24
2021/12/28 06:21:40;;;;;;;8.30;5.10;;;8.00;74.90;;;;;;5014700;28;20025;-26
2021/12/28 06:24:07;;;;;;;7.97;4.90;;;8.00;74.90;;;;;;5013996;28;20097;-25
2021/12/28 06:26:34;;;;;;;9.57;6.07;;;8.00;74.80;;;;;;5014190;28;20453;-25
2021/12/28 06:29:02;;;;;;;7.45;5.30;;;8.00;74.90;;;;;;5014182;28;20068;-25
2021/12/28 06:31:28;;;;;;;8.75;5.18;;;7.90;74.90;;;;;;5014206;28;20026;-26
2021/12/28 06:33:59;;;;;;;9.05;5.57;;;7.90;74.90;;;;;;5014161;28;20025;-25
2021/12/28 06:36:26;;;;;;;8.48;5.03;;;7.90;75.00;;;;;;5014198;28;20034;-25
2021/12/28 06:38:52;;;;;;;7.80;4.50;;;7.90;75.00;;;;;;5014330;28;20034;-25
2021/12/28 06:41:18;;;;;;;7.32;4.43;;;7.90;75.00;;;;;;5014019;28;20425;-24
2021/12/28 06:43:45;;;;;;;7.53;4.85;;;8.00;75.00;;;;;;5012654;28;20022;-24
2021/12/28 06:46:10;;;;;;;8.95;5.53;;;8.00;75.00;;;;;;5013969;28;20068;-26
2021/12/28 06:48:36;;;;;;;12.45;8.80;;;8.00;75.00;;;;;;5013827;28;20137;-25
2021/12/28 06:51:03;;;;;;;10.85;6.05;;;8.00;75.10;;;;;;5014352;28;20087;-26
2021/12/28 06:53:29;;;;;;;10.63;6.25;;;8.00;75.10;;;;;;5014115;28;20022;-26
2021/12/28 06:55:54;;;;;;;10.68;6.13;;;8.00;75.00;;;;;;5013954;28;20041;-25
2021/12/28 06:58:20;;;;;;;8.45;5.00;;;8.00;75.10;;;;;;5014463;28;20482;-25
2021/12/28 07:00:46;;;;;;;7.95;5.45;;;8.00;75.10;;;;;;5013709;28;20119;-25
2021/12/28 07:03:12;;;;;;;19.98;13.88;;;8.00;75.10;;;;;;5014005;28;20033;-27
2021/12/28 07:05:38;;;;;;;11.90;7.65;;;8.00;75.50;;;;;;5013683;28;20389;-26
2021/12/28 07:08:04;;;;;;;9.48;5.72;;;8.00;75.20;;;;;;5013952;28;20101;-26
2021/12/28 07:10:30;;;;;;;12.88;8.93;;;8.00;75.10;;;;;;5013701;28;20022;-26
2021/12/28 07:12:56;;;;;;;13.00;8.95;;;8.00;75.10;;;;;;5013493;28;20371;-26
2021/12/28 07:15:22;;;;;;;23.83;16.27;;;8.10;75.10;;;;;;5013459;28;20025;-25
2021/12/28 07:17:49;;;;;;;11.25;7.38;;;8.10;75.20;;;;;;5014086;28;20524;-26
2021/12/28 07:20:16;;;;;;;20.77;14.05;;;8.10;75.20;;;;;;5013616;28;20030;-26
2021/12/28 07:22:42;;;;;;;13.50;8.50;;;8.10;75.90;;;;;;5013431;28;20037;-26
2021/12/28 07:25:10;;;;;;;14.63;7.85;;;8.10;75.60;;;;;;5012346;28;20022;-26
2021/12/28 07:27:37;;;;;;;17.35;12.15;;;8.10;75.60;;;;;;5013286;28;20084;-25
2021/12/28 07:30:07;;;;;;;18.67;12.48;;;8.20;75.70;;;;;;5013685;28;20029;-25
2021/12/28 07:32:33;;;;;;;18.00;11.07;;;8.20;75.50;;;;;;5013146;28;20085;-26
2021/12/28 07:34:59;;;;;;;20.60;12.00;;;8.20;75.50;;;;;;5012628;28;20126;-26
2021/12/28 07:37:25;;;;;;;13.63;8.15;;;8.20;75.60;;;;;;5013651;28;20080;-25
2021/12/28 07:39:51;;;;;;;11.98;7.32;;;8.20;75.50;;;;;;5013261;28;20040;-26
2021/12/28 07:42:18;;;;;;;11.88;7.05;;;8.30;75.40;;;;;;5013058;28;20034;-25
2021/12/28 07:44:43;;;;;;;13.88;9.05;;;8.30;75.30;;;;;;5013233;28;20505;-24
2021/12/28 07:47:09;;;;;;;18.58;12.35;;;8.30;75.30;;;;;;5013001;28;20026;-27
2021/12/28 07:49:35;;;;;;;18.55;12.80;;;8.40;75.50;;;;;;5011903;28;20117;-25
2021/12/28 07:52:01;;;;;;;13.95;8.60;;;8.40;75.50;;;;;;5013469;28;20031;-25
2021/12/28 07:54:27;;;;;;;14.45;10.10;;;8.40;75.50;;;;;;5012839;28;20058;-25
2021/12/28 07:56:53;;;;;;;25.42;15.30;;;8.50;75.50;;;;;;5013046;28;20103;-25
2021/12/28 07:59:19;;;;;;;17.83;11.13;;;8.50;75.60;;;;;;5013317;28;20034;-26
2021/12/28 08:01:45;;;;;;;29.55;18.15;;;8.60;75.60;;;;;;5013045;28;20080;-26
2021/12/28 08:04:11;;;;;;;25.20;15.65;;;8.60;75.80;;;;;;5013416;28;20037;-25
2021/12/28 08:06:37;;;;;;;29.40;18.40;;;8.60;76.10;;;;;;5012794;28;20049;-26
2021/12/28 08:09:03;;;;;;;31.70;19.70;;;8.60;76.50;;;;;;5013315;28;20149;-25
2021/12/28 08:11:29;;;;;;;23.10;15.30;;;8.60;76.20;;;;;;5013260;28;20374;-25
2021/12/28 08:13:55;;;;;;;30.70;19.20;;;8.70;76.10;;;;;;5013047;28;20033;-25
2021/12/28 08:16:21;;;;;;;28.95;18.77;;;8.70;75.90;;;;;;5012720;28;20125;-25
2021/12/28 08:18:47;;;;;;;24.40;16.95;;;8.70;76.20;;;;;;5013429;28;20026;-25
2021/12/28 08:21:13;;;;;;;21.77;13.98;;;8.80;76.50;;;;;;5011716;28;20478;-27
2021/12/28 08:23:39;;;;;;;26.92;16.92;;;8.80;76.30;;;;;;5013468;28;20449;-27
2021/12/28 08:26:05;;;;;;;19.85;11.70;;;8.90;76.10;;;;;;5012825;28;20116;-24
2021/12/28 08:28:31;;;;;;;27.15;17.48;;;8.90;76.30;;;;;;5012527;28;20073;-26
2021/12/28 08:30:57;;;;;;;21.27;12.98;;;9.00;76.40;;;;;;5012837;28;20030;-26
2021/12/28 08:33:24;;;;;;;16.00;9.63;;;9.00;76.20;;;;;;5011612;28;20026;-25
2021/12/28 08:35:50;;;;;;;16.92;10.27;;;9.10;75.80;;;;;;5012626;28;20478;-25
2021/12/28 08:38:17;;;;;;;24.35;15.57;;;9.20;75.70;;;;;;5011268;28;20386;-25
2021/12/28 08:40:44;;;;;;;21.50;12.43;;;9.30;76.00;;;;;;5011729;28;20069;-25
2021/12/28 08:43:12;;;;;;;17.42;11.55;;;9.30;75.80;;;;;;5012899;28;20136;-25
2021/12/28 08:45:40;;;;;;;22.77;15.18;;;9.40;75.50;;;;;;5013221;28;20080;-25
2021/12/28 08:48:07;;;;;;;24.15;17.13;;;9.40;75.50;;;;;;5015931;28;20057;-25
2021/12/28 08:50:34;;;;;;;24.63;16.60;;;9.50;75.40;;;;;;5016539;28;20080;-25
2021/12/28 08:53:00;;;;;;;25.67;16.08;;;9.50;75.40;;;;;;5016399;28;20040;-26
2021/12/28 08:55:26;;;;;;;25.38;16.48;;;9.50;75.40;;;;;;5015947;28;20121;-26
2021/12/28 08:57:53;;;;;;;24.77;12.45;;;9.60;75.30;;;;;;5015909;28;20026;-25
2021/12/28 09:00:24;;;;;;;22.85;15.35;;;9.60;75.20;;;;;;5015796;28;20548;-26
2021/12/28 09:02:51;;;;;;;27.25;17.58;;;9.60;75.00;;;;;;5016008;28;20475;-26
2021/12/28 09:05:17;;;;;;;25.20;15.05;;;9.60;75.20;;;;;;5016049;28;20022;-25
2021/12/28 09:07:46;;;;;;;28.73;19.17;;;9.60;75.40;;;;;;5015955;28;20030;-25
2021/12/28 09:10:12;;;;;;;20.88;12.93;;;9.60;75.30;;;;;;5015725;28;20117;-25
2021/12/28 09:12:38;;;;;;;23.00;13.68;;;9.60;75.30;;;;;;5015721;28;20026;-24
2021/12/28 09:15:07;;;;;;;28.75;17.75;;;9.70;75.30;;;;;;5014502;28;20374;-25
2021/12/28 09:17:34;;;;;;;24.30;15.32;;;9.70;75.20;;;;;;5016205;28;20034;-25
2021/12/28 09:20:08;;;;;;;22.67;12.73;;;9.80;75.00;;;;;;5015583;28;20044;-25
2021/12/28 09:22:34;;;;;;;15.88;9.20;;;9.80;74.90;;;;;;5014321;28;20038;-25
2021/12/28 09:25:00;;;;;;;25.23;15.25;;;9.90;74.90;;;;;;5015798;28;20030;-25
2021/12/28 09:27:26;;;;;;;22.48;13.20;;;9.90;74.90;;;;;;5015381;28;20022;-24
2021/12/28 09:29:52;;;;;;;23.38;14.57;;;9.90;74.70;;;;;;5015624;28;20040;-25
2021/12/28 09:32:20;;;;;;;21.60;13.38;;;10.00;74.60;;;;;;5015299;28;20049;-25
2021/12/28 09:34:50;;;;;;;17.15;10.77;;;10.10;74.60;;;;;;5015351;28;20117;-25
2021/12/28 09:37:19;;;;;;;14.52;7.93;;;10.10;74.50;;;;;;5014492;28;20504;-25
2021/12/28 09:39:45;;;;;;;19.25;11.90;;;10.20;74.50;;;;;;5015144;28;20030;-25
2021/12/28 09:42:12;;;;;;;20.25;12.77;;;10.20;74.40;;;;;;5015725;28;20030;-25
2021/12/28 09:44:38;;;;;;;26.52;15.77;;;10.30;74.50;;;;;;5015365;28;20026;-25
2021/12/28 09:47:11;;;;;;;24.55;14.93;;;10.40;74.40;;;;;;5015356;28;20029;-25
2021/12/28 09:49:38;;;;;;;31.60;20.50;;;10.50;74.30;;;;;;4998179;28;20053;-25
2021/12/28 09:52:05;;;;;;;28.00;17.42;;;10.60;74.20;;;;;;5014990;28;20034;-26
2021/12/28 09:54:33;;;;;;;24.48;14.73;;;10.70;73.90;;;;;;5015052;28;20052;-26
2021/12/28 09:57:00;;;;;;;35.35;21.67;;;10.80;73.80;;;;;;5014828;28;20037;-26
2021/12/28 09:59:30;;;;;;;25.20;15.50;;;10.80;73.70;;;;;;5014516;28;20437;-25
2021/12/28 10:02:06;;;;;;;37.40;22.20;;;10.90;73.60;;;;;;5015085;28;20057;-25
2021/12/28 10:04:33;;;;;;;31.27;18.98;;;10.90;73.40;;;;;;5014894;28;20022;-25
2021/12/28 10:07:21;;;;;;;39.78;23.50;;;10.90;73.40;;;;;;5013630;28;20026;-25
2021/12/28 10:09:48;;;;;;;37.88;22.67;;;10.90;73.40;;;;;;5013417;28;20028;-26
2021/12/28 10:12:32;;;;;;;41.55;25.15;;;10.90;73.40;;;;;;5015194;28;20104;-28
2021/12/28 10:15:02;;;;;;;29.42;18.40;;;11.00;73.40;;;;;;5014877;28;20041;-25
2021/12/28 10:17:31;;;;;;;34.47;20.30;;;11.10;73.50;;;;;;5014479;28;20026;-26
2021/12/28 10:19:59;;;;;;;34.95;21.80;;;11.20;73.30;;;;;;5014423;28;20410;-25
2021/12/28 10:22:42;;;;;;;35.58;21.70;;;11.20;73.00;;;;;;5012983;28;20033;-25
2021/12/28 10:25:21;;;;;;;39.88;23.58;;;11.20;72.40;;;;;;5014463;28;20041;-26
2021/12/28 10:28:12;;;;;;;29.55;18.90;;;11.30;72.60;;;;;;5014310;28;20492;-26
2021/12/28 10:30:45;;;;;;;35.35;20.15;;;11.30;72.70;;;;;;5013833;28;20038;-25
2021/12/28 10:33:16;;;;;;;35.07;21.03;;;11.40;72.80;;;;;;5014631;28;20100;-25
2021/12/28 10:35:49;;;;;;;30.50;17.25;;;11.40;72.80;;;;;;5014186;28;20034;-25
2021/12/28 10:38:20;;;;;;;25.90;15.13;;;11.40;72.70;;;;;;5014205;28;20022;-25
2021/12/28 10:41:01;;;;;;;26.23;15.70;;;11.50;72.70;;;;;;5014188;28;20091;-25
2021/12/28 10:43:34;;;;;;;35.22;20.58;;;11.60;72.60;;;;;;5014349;28;20022;-25
2021/12/28 10:46:08;;;;;;;35.17;21.10;;;11.70;72.60;;;;;;5014251;28;20033;-25
2021/12/28 10:48:39;;;;;;;34.60;21.13;;;11.70;72.00;;;;;;5013827;28;20441;-25
2021/12/28 10:51:14;;;;;;;37.50;23.00;;;11.80;72.10;;;;;;5014272;28;20489;-25
2021/12/28 10:56:33;;;;;;;36.53;23.17;;;11.90;71.80;;;;;;5013644;28;20030;-25
2021/12/28 10:59:01;;;;;;;32.42;18.83;;;11.90;71.50;;;;;;5013771;28;20018;-25
2021/12/28 11:01:38;;;;;;;39.78;24.83;;;12.00;71.70;;;;;;5013816;28;20022;-25
2021/12/28 11:04:09;;;;;;;44.92;27.25;;;12.00;71.40;;;;;;5014014;28;20022;-25
2021/12/28 11:06:55;;;;;;;43.38;25.00;;;11.90;71.40;;;;;;5013577;28;20037;-26
2021/12/28 11:09:26;;;;;;;38.20;21.85;;;12.00;71.30;;;;;;5013505;28;20045;-26
2021/12/28 11:11:56;;;;;;;37.47;23.15;;;12.10;71.60;;;;;;5013939;28;20030;-27
2021/12/28 11:14:26;;;;;;;32.80;20.65;;;12.10;71.60;;;;;;5013314;28;20389;-24
2021/12/28 11:17:02;;;;;;;39.78;25.13;;;12.20;71.50;;;;;;5013484;28;20120;-25
2021/12/28 11:19:30;;;;;;;39.47;23.35;;;12.20;71.20;;;;;;5012446;28;20066;-24
2021/12/28 11:22:03;;;;;;;36.75;22.08;;;12.20;70.70;;;;;;5013495;28;20088;-25
2021/12/28 11:24:33;;;;;;;32.42;20.80;;;12.20;70.90;;;;;;5013637;28;20022;-25
2021/12/28 11:26:59;;;;;;;35.42;21.80;;;12.20;71.00;;;;;;5013677;28;20022;-25
2021/12/28 11:29:37;;;;;;;34.70;21.40;;;12.20;71.00;;;;;;5013551;28;20037;-25
2021/12/28 11:32:12;;;;;;;32.67;20.52;;;12.20;70.60;;;;;;5013628;28;20389;-24
2021/12/28 11:34:40;;;;;;;26.80;16.00;;;12.20;70.60;;;;;;5013432;28;20034;-25
2021/12/28 11:37:15;;;;;;;34.33;21.80;;;12.20;71.00;;;;;;5013637;28;20044;-25
2021/12/28 11:39:44;;;;;;;32.63;20.75;;;12.20;70.50;;;;;;5012130;28;20026;-26
2021/12/28 11:42:11;;;;;;;34.03;20.83;;;12.20;70.80;;;;;;5013317;28;20021;-25
2021/12/28 11:44:40;;;;;;;40.42;23.65;;;12.30;70.80;;;;;;5013025;28;20029;-26
2021/12/28 11:47:10;;;;;;;36.15;22.42;;;12.30;70.80;;;;;;5013584;28;20434;-25
2021/12/28 11:49:38;;;;;;;32.13;19.58;;;12.40;71.00;;;;;;5013434;28;20120;-25
2021/12/28 11:52:07;;;;;;;32.35;18.95;;;12.40;70.90;;;;;;5013660;28;20371;-26
2021/12/28 11:54:37;;;;;;;29.77;17.50;;;12.40;70.40;;;;;;5013062;28;20076;-26
2021/12/28 11:57:15;;;;;;;28.40;18.17;;;12.50;70.70;;;;;;5013185;28;20382;-25
2021/12/28 11:59:49;;;;;;;30.95;18.45;;;12.60;70.30;;;;;;5011514;28;20522;-24
2021/12/28 12:02:15;;;;;;;32.03;18.38;;;12.60;69.90;;;;;;5013251;28;20076;-25
2021/12/28 12:04:43;;;;;;;32.80;21.23;;;12.70;70.00;;;;;;5013376;28;20117;-24
2021/12/28 12:07:16;;;;;;;30.35;20.20;;;12.70;69.90;;;;;;5011760;28;20128;-24
2021/12/28 12:09:53;;;;;;;32.03;19.05;;;12.70;69.40;;;;;;5013400;28;20037;-25
2021/12/28 12:12:21;;;;;;;23.23;14.73;;;12.70;69.50;;;;;;5013137;28;20104;-25
2021/12/28 12:14:58;;;;;;;30.15;18.52;;;12.70;69.70;;;;;;5012907;28;20034;-25
2021/12/28 12:17:30;;;;;;;27.70;17.48;;;12.70;69.70;;;;;;5013397;28;20022;-25
2021/12/28 12:20:03;;;;;;;23.70;14.35;;;12.80;70.00;;;;;;5012952;28;20438;-25
2021/12/28 12:22:32;;;;;;;24.85;16.83;;;12.70;70.00;;;;;;5016273;28;20076;-25
2021/12/28 12:25:01;;;;;;;30.02;19.50;;;12.80;69.90;;;;;;5016932;28;20021;-25
2021/12/28 12:27:56;;;;;;;35.55;21.50;;;12.70;69.60;;;;;;5016635;28;20030;-25
2021/12/28 12:30:24;;;;;;;30.92;20.10;;;12.70;69.30;;;;;;5016707;28;20061;-26
2021/12/28 12:35:35;;;;;;;23.58;14.30;;;12.70;69.70;;;;;;5016664;28;20061;-25
2021/12/28 12:38:24;;;;;;;29.05;18.05;;;12.70;69.80;;;;;;5016701;28;20038;-25
2021/12/28 12:41:04;;;;;;;33.83;20.23;;;12.70;69.60;;;;;;5016311;28;20030;-25
2021/12/28 12:43:36;;;;;;;29.63;18.17;;;12.80;70.00;;;;;;5016239;28;20443;-25
2021/12/28 12:46:37;;;;;;;30.13;19.10;;;12.80;69.90;;;;;;5016521;28;20034;-25
2021/12/28 12:49:20;;;;;;;21.98;12.63;;;12.80;69.30;;;;;;5016002;28;20402;-25
2021/12/28 12:52:02;;;;;;;26.40;16.42;;;12.80;69.70;;;;;;5016473;28;20030;-24
2021/12/28 12:54:45;;;;;;;30.02;18.17;;;12.80;69.70;;;;;;5016231;28;20119;-25